Time;durP1;ratioP1;P1;durP2;ratioP2;P2;SDS_P1;SDS_P2;PMS_P1;PMS_P2;Temp;Humidity;BMP_temperature;BMP_pressure;BME280_temperature;BME280_humidity;BME280_pressure;Samples;Min_cycle;Max_cycle;Signal;HPM_P1;HPM_P2
2021/10/27 00:00:28;;;;;;;31.20;16.60;;;;;;;5.79;97.62;100458.53;5057233;28;20045;-74
2021/10/27 00:03:13;;;;;;;32.50;17.25;;;;;;;5.64;97.00;100450.66;5057138;28;20389;-74
2021/10/27 00:05:57;;;;;;;28.38;15.32;;;;;;;5.54;98.38;100452.34;5058235;28;20115;-74
2021/10/27 00:08:42;;;;;;;26.67;15.95;;;;;;;5.44;97.19;100463.53;5057345;28;20040;-74
2021/10/27 00:11:27;;;;;;;34.33;17.40;;;;;;;5.31;98.39;100464.31;5058281;28;20067;-74
2021/10/27 00:14:12;;;;;;;32.13;17.17;;;;;;;5.24;98.77;100468.59;5058222;28;20049;-74
2021/10/27 00:16:56;;;;;;;35.72;19.13;;;;;;;5.13;98.59;100454.66;5057574;28;20076;-74
2021/10/27 00:19:41;;;;;;;29.50;17.48;;;;;;;5.03;98.80;100458.03;5057468;28;20439;-74
2021/10/27 00:22:25;;;;;;;31.20;16.80;;;;;;;5.00;100.00;100460.63;5056989;28;20068;-74
2021/10/27 00:25:10;;;;;;;31.50;18.17;;;;;;;4.92;100.00;100457.97;5057582;28;20041;-72
2021/10/27 00:27:54;;;;;;;27.10;15.70;;;;;;;4.90;100.00;100463.13;5057556;28;20350;-74
2021/10/27 00:30:39;;;;;;;29.40;16.92;;;;;;;4.91;100.00;100461.44;5042433;28;20398;-74
2021/10/27 00:33:23;;;;;;;31.30;18.02;;;;;;;4.99;100.00;100464.09;5057070;28;20041;-74
2021/10/27 00:36:08;;;;;;;29.85;16.80;;;;;;;5.03;100.00;100464.09;5028752;28;20118;-74
2021/10/27 00:38:52;;;;;;;27.75;15.23;;;;;;;5.10;100.00;100462.44;5042429;28;20041;-74
2021/10/27 00:41:36;;;;;;;34.58;17.27;;;;;;;5.06;100.00;100465.88;5057060;28;20056;-74
2021/10/27 00:44:25;;;;;;;28.73;16.95;;;;;;;5.00;100.00;100465.81;5056331;28;20040;-74
2021/10/27 00:47:12;;;;;;;29.67;16.95;;;;;;;4.90;99.79;100473.50;5056976;28;20040;-74
2021/10/27 00:49:56;;;;;;;31.10;16.50;;;;;;;4.86;100.00;100469.16;5056892;28;20079;-74
2021/10/27 00:52:41;;;;;;;31.98;17.15;;;;;;;4.87;100.00;100483.00;5056151;28;20208;-74
2021/10/27 00:55:26;;;;;;;32.15;17.08;;;;;;;4.83;100.00;100479.53;5056153;28;20135;-74
2021/10/27 00:58:10;;;;;;;29.48;16.23;;;;;;;4.67;100.00;100478.50;5055966;28;20045;-74
2021/10/27 01:00:55;;;;;;;30.13;15.77;;;;;;;4.63;100.00;100476.75;5056930;28;20041;-73
2021/10/27 01:03:40;;;;;;;30.13;16.67;;;;;;;4.56;100.00;100479.28;5056509;28;20048;-75
2021/10/27 01:06:24;;;;;;;30.63;16.27;;;;;;;4.51;100.00;100479.22;5056543;28;20059;-72
2021/10/27 01:09:10;;;;;;;32.17;16.83;;;;;;;4.45;100.00;100471.34;5056519;28;20037;-75
2021/10/27 01:11:55;;;;;;;30.42;17.42;;;;;;;4.42;100.00;100473.94;5056491;28;20041;-74
2021/10/27 01:14:45;;;;;;;32.38;17.15;;;;;;;4.34;100.00;100478.16;5056456;28;20114;-74
2021/10/27 01:17:30;;;;;;;30.50;17.10;;;;;;;4.27;100.00;100484.16;5055650;28;20122;-74
2021/10/27 01:20:15;;;;;;;31.35;17.20;;;;;;;4.16;100.00;100487.50;5056625;28;20041;-74
2021/10/27 01:22:59;;;;;;;32.60;17.20;;;;;;;4.13;100.00;100482.28;5056686;28;20048;-74
2021/10/27 01:25:44;;;;;;;29.05;16.83;;;;;;;4.11;100.00;100485.69;5055995;28;20041;-74
2021/10/27 01:28:28;;;;;;;30.92;16.20;;;;;;;4.01;100.00;100481.25;5056721;28;20068;-74
2021/10/27 01:31:14;;;;;;;32.47;17.80;;;;;;;4.03;100.00;100485.63;5056227;28;20106;-74
2021/10/27 01:33:59;;;;;;;32.50;16.85;;;;;;;3.91;100.00;100475.09;5056599;28;20135;-74
2021/10/27 01:36:44;;;;;;;31.58;16.50;;;;;;;3.81;100.00;100474.09;5056030;28;20052;-74
2021/10/27 01:39:29;;;;;;;28.98;16.05;;;;;;;3.74;100.00;100480.06;5055379;28;20057;-74
2021/10/27 01:42:14;;;;;;;29.38;16.33;;;;;;;3.72;100.00;100479.16;5069515;28;20048;-74
2021/10/27 01:44:58;;;;;;;27.73;15.63;;;;;;;3.65;100.00;100470.44;5055277;28;20044;-74
2021/10/27 01:47:46;;;;;;;30.75;16.80;;;;;;;3.59;100.00;100475.53;5056218;28;20052;-74
2021/10/27 01:50:30;;;;;;;28.85;17.13;;;;;;;3.58;100.00;100472.94;5055350;28;20443;-74
2021/10/27 01:53:14;;;;;;;29.13;16.17;;;;;;;3.45;100.00;100472.75;5056262;28;20044;-74
2021/10/27 01:55:59;;;;;;;27.75;15.20;;;;;;;3.43;100.00;100471.84;5055371;28;20132;-74
2021/10/27 01:58:43;;;;;;;28.10;16.33;;;;;;;3.38;100.00;100467.44;5055696;28;20041;-74
2021/10/27 02:01:27;;;;;;;30.77;18.08;;;;;;;3.36;100.00;100466.56;5055399;28;20061;-74
2021/10/27 02:04:14;;;;;;;29.90;17.10;;;;;;;3.42;100.00;100464.94;5041825;28;20392;-74
2021/10/27 02:07:00;;;;;;;29.15;16.70;;;;;;;3.35;100.00;100478.66;5055047;28;20060;-74
2021/10/27 02:09:44;;;;;;;25.58;15.57;;;;;;;3.39;100.00;100466.59;5055876;28;20041;-74
2021/10/27 02:12:29;;;;;;;27.00;16.60;;;;;;;3.39;100.00;100467.47;5055101;28;20037;-74
2021/10/27 02:15:13;;;;;;;31.80;17.23;;;;;;;3.43;100.00;100476.16;5055678;28;20041;-74
2021/10/27 02:17:57;;;;;;;26.30;15.25;;;;;;;3.36;100.00;100464.84;5055755;28;20438;-75
2021/10/27 02:20:42;;;;;;;25.88;16.00;;;;;;;3.36;100.00;100472.59;5056467;28;20041;-74
2021/10/27 02:23:26;;;;;;;27.67;17.30;;;;;;;3.33;100.00;100480.31;5059855;28;20439;-74
2021/10/27 02:26:11;;;;;;;31.52;16.63;;;;;;;3.27;100.00;100481.09;5058980;28;20041;-74
2021/10/27 02:28:56;;;;;;;30.92;16.67;;;;;;;3.24;100.00;100477.59;5059984;28;20040;-74
2021/10/27 02:31:41;;;;;;;28.77;16.60;;;;;;;3.24;100.00;100483.63;5058755;28;20044;-74
2021/10/27 02:34:25;;;;;;;30.77;17.40;;;;;;;3.27;100.00;100480.22;5059533;28;20427;-74
2021/10/27 02:37:10;;;;;;;26.85;17.35;;;;;;;3.26;100.00;100481.97;5058569;28;20045;-74
2021/10/27 02:39:56;;;;;;;24.33;15.98;;;;;;;3.26;100.00;100483.69;5059502;28;20041;-75
2021/10/27 02:42:41;;;;;;;29.35;16.63;;;;;;;3.32;100.00;100467.38;5059462;28;20041;-74
2021/10/27 02:45:26;;;;;;;27.45;16.75;;;;;;;3.38;100.00;100472.63;5044674;28;20049;-74
2021/10/27 02:48:12;;;;;;;32.13;16.30;;;;;;;3.38;100.00;100478.69;5058566;28;20075;-74
2021/10/27 02:50:57;;;;;;;30.67;17.42;;;;;;;3.43;100.00;100474.44;5058969;28;20045;-74
2021/10/27 02:53:42;;;;;;;26.00;17.23;;;;;;;3.37;100.00;100479.53;5059014;28;20067;-74
2021/10/27 02:56:26;;;;;;;31.13;17.42;;;;;;;3.44;100.00;100480.47;5059232;28;20506;-74
2021/10/27 02:59:10;;;;;;;29.30;17.00;;;;;;;3.48;100.00;100487.47;5059655;28;20044;-74
2021/10/27 03:01:54;;;;;;;27.10;16.48;;;;;;;3.45;100.00;100488.28;5058338;28;20124;-74
2021/10/27 03:04:39;;;;;;;26.10;15.25;;;;;;;3.41;100.00;100477.84;5059064;28;20037;-74
2021/10/27 03:07:23;;;;;;;26.48;16.67;;;;;;;3.41;100.00;100481.31;5058245;28;20044;-74
2021/10/27 03:10:08;;;;;;;30.45;17.05;;;;;;;3.41;100.00;100483.03;5058933;28;20048;-74
2021/10/27 03:12:52;;;;;;;27.98;16.55;;;;;;;3.41;100.00;100481.31;5059006;28;20037;-74
2021/10/27 03:15:37;;;;;;;28.98;15.95;;;;;;;3.44;100.00;100491.69;5044108;28;20182;-74
2021/10/27 03:18:22;;;;;;;29.35;16.83;;;;;;;3.43;100.00;100492.56;5072215;28;20049;-74
2021/10/27 03:21:07;;;;;;;24.45;15.48;;;;;;;3.41;100.00;100490.78;5059151;28;20041;-74
2021/10/27 03:23:51;;;;;;;29.00;16.63;;;;;;;3.35;100.00;100494.19;5058518;28;20094;-73
2021/10/27 03:26:36;;;;;;;28.75;16.85;;;;;;;3.34;100.00;100497.59;5058672;28;20061;-73
2021/10/27 03:29:21;;;;;;;29.13;16.80;;;;;;;3.30;100.00;100501.00;5058476;28;20435;-73
2021/10/27 03:32:05;;;;;;;26.55;16.45;;;;;;;3.30;100.00;100502.72;5071548;28;20045;-74
2021/10/27 03:34:50;;;;;;;25.92;16.05;;;;;;;3.27;100.00;100503.53;5057901;28;20419;-74
2021/10/27 03:37:35;;;;;;;24.08;15.07;;;;;;;3.26;100.00;100506.97;5058575;28;20359;-74
2021/10/27 03:40:20;;;;;;;25.75;15.80;;;;;;;3.25;100.00;100511.28;5058603;28;20041;-74
2021/10/27 03:43:04;;;;;;;29.25;17.88;;;;;;;3.24;100.00;100519.03;5057940;28;20045;-74
2021/10/27 03:45:48;;;;;;;27.55;16.75;;;;;;;3.19;100.00;100520.69;5057489;28;20041;-74
2021/10/27 03:48:33;;;;;;;27.05;16.40;;;;;;;3.19;100.00;100511.19;5058081;28;20045;-74
2021/10/27 03:51:17;;;;;;;25.35;16.73;;;;;;;3.16;100.00;100511.16;5058155;28;20106;-73
2021/10/27 03:54:01;;;;;;;26.08;15.85;;;;;;;3.10;100.00;100512.75;5058679;28;20045;-73
2021/10/27 03:56:46;;;;;;;28.20;17.25;;;;;;;3.10;100.00;100510.19;5043268;28;20044;-73
2021/10/27 03:59:31;;;;;;;30.98;17.42;;;;;;;3.09;100.00;100511.91;5057212;28;20064;-73
2021/10/27 04:02:16;;;;;;;27.90;16.83;;;;;;;3.07;100.00;100508.41;5057391;28;20107;-73
2021/10/27 04:05:00;;;;;;;32.45;16.00;;;;;;;3.02;100.00;100513.50;5057372;28;20041;-74
2021/10/27 04:07:44;;;;;;;27.63;16.65;;;;;;;2.98;100.00;100510.84;5057454;28;20431;-73
2021/10/27 04:10:29;;;;;;;32.03;16.83;;;;;;;2.92;100.00;100511.59;5058060;28;20045;-74
2021/10/27 04:13:15;;;;;;;28.20;18.08;;;;;;;2.91;100.00;100520.22;5057989;28;20072;-74
2021/10/27 04:15:59;;;;;;;29.52;17.08;;;;;;;2.86;100.00;100519.28;5070642;28;20059;-74
2021/10/27 04:18:44;;;;;;;33.10;17.77;;;;;;;2.84;100.00;100502.84;5056782;28;20033;-74
2021/10/27 04:21:28;;;;;;;28.00;17.05;;;;;;;2.89;100.00;100513.25;5055630;28;20045;-74
2021/10/27 04:24:12;;;;;;;34.88;19.17;;;;;;;2.89;100.00;100515.84;5054813;28;20339;-74
2021/10/27 04:26:57;;;;;;;33.83;18.73;;;;;;;2.79;100.00;100517.41;5054664;28;20064;-74
2021/10/27 04:29:41;;;;;;;38.83;23.17;;;;;;;2.77;100.00;100519.09;5054493;28;20048;-74
2021/10/27 04:32:26;;;;;;;34.97;21.38;;;;;;;2.70;100.00;100520.72;5054618;28;20041;-74
2021/10/27 04:35:11;;;;;;;30.52;19.23;;;;;;;2.79;100.00;100520.88;5042033;28;20071;-74
2021/10/27 04:37:56;;;;;;;31.92;19.65;;;;;;;2.76;100.00;100513.06;5057164;28;20045;-74
2021/10/27 04:40:42;;;;;;;29.65;18.40;;;;;;;2.71;100.00;100499.16;5054459;28;20120;-74
2021/10/27 04:43:27;;;;;;;29.60;17.08;;;;;;;2.71;100.00;100506.06;5039781;28;20091;-74
2021/10/27 04:46:11;;;;;;;28.35;17.67;;;;;;;2.58;100.00;100499.78;5040404;28;20056;-74
2021/10/27 04:48:56;;;;;;;33.60;18.10;;;;;;;2.63;100.00;100502.44;5055110;28;20052;-74
2021/10/27 04:51:40;;;;;;;27.65;18.23;;;;;;;2.61;100.00;100499.84;5055318;28;20083;-74
2021/10/27 04:54:25;;;;;;;29.73;18.40;;;;;;;2.65;100.00;100509.41;5056185;28;20041;-75
2021/10/27 04:57:09;;;;;;;33.95;20.05;;;;;;;2.53;100.00;100515.22;5056954;28;20037;-74
2021/10/27 04:59:54;;;;;;;32.53;19.30;;;;;;;2.57;100.00;100527.38;5056345;28;20037;-74
2021/10/27 05:02:38;;;;;;;35.85;22.50;;;;;;;2.56;100.00;100523.03;5057101;28;20415;-74
2021/10/27 05:05:22;;;;;;;53.15;34.90;;;;;;;2.53;100.00;100522.97;5055973;28;20052;-74
2021/10/27 05:08:06;;;;;;;68.10;46.47;;;;;;;2.57;100.00;100526.50;5056434;28;20049;-74
2021/10/27 05:10:52;;;;;;;67.20;47.95;;;;;;;2.60;100.00;100520.50;5041969;28;20037;-74
2021/10/27 05:13:36;;;;;;;58.60;42.40;;;;;;;2.55;100.00;100523.88;5056429;28;20045;-74
2021/10/27 05:16:21;;;;;;;57.33;38.63;;;;;;;2.55;100.00;100530.78;5041584;28;20049;-76
2021/10/27 05:19:05;;;;;;;47.65;32.97;;;;;;;2.54;100.00;100541.97;5069888;28;20072;-74
2021/10/27 05:21:50;;;;;;;50.45;31.80;;;;;;;2.50;100.00;100530.69;5069708;28;20041;-74
2021/10/27 05:24:35;;;;;;;45.53;27.90;;;;;;;2.44;100.00;100528.00;5056246;28;20040;-76
2021/10/27 05:27:19;;;;;;;46.50;28.70;;;;;;;2.47;100.00;100530.63;5056310;28;20052;-74
2021/10/27 05:30:05;;;;;;;48.33;30.92;;;;;;;2.43;100.00;100535.69;5055173;28;20080;-74
2021/10/27 05:32:49;;;;;;;44.58;27.60;;;;;;;2.37;100.00;100533.84;5055353;28;20098;-76
2021/10/27 05:35:34;;;;;;;54.92;30.73;;;;;;;2.43;100.00;100541.75;5056237;28;20041;-74
2021/10/27 05:38:18;;;;;;;52.35;30.98;;;;;;;2.38;100.00;100534.75;5041610;28;20044;-77
2021/10/27 05:41:03;;;;;;;47.88;29.40;;;;;;;2.40;100.00;100543.41;5056167;28;20041;-74
2021/10/27 05:43:48;;;;;;;44.75;27.17;;;;;;;2.40;100.00;100533.91;5056072;28;20436;-77
2021/10/27 05:46:32;;;;;;;50.40;28.45;;;;;;;2.47;100.00;100540.09;5056631;28;20427;-76
2021/10/27 05:57:45;;;;;;;49.55;28.20;;;;;;;2.54;100.00;100541.97;5055899;28;20059;-74
2021/10/27 06:00:31;;;;;;;51.83;27.38;;;;;;;2.58;100.00;100551.53;5056200;28;20492;-74
2021/10/27 06:03:15;;;;;;;66.07;31.75;;;;;;;2.69;100.00;100550.00;5055758;28;20407;-74
2021/10/27 06:06:00;;;;;;;60.90;35.55;;;;;;;2.76;100.00;100550.97;5055587;28;20048;-74
2021/10/27 06:08:44;;;;;;;54.72;30.33;;;;;;;2.81;100.00;100551.94;5055402;28;20119;-74
2021/10/27 06:11:28;;;;;;;46.80;26.55;;;;;;;2.90;100.00;100551.25;5056360;28;20040;-74
2021/10/27 06:14:12;;;;;;;45.50;26.60;;;;;;;3.07;100.00;100564.47;5055204;28;20061;-74
2021/10/27 06:16:59;;;;;;;46.97;26.75;;;;;;;3.17;100.00;100556.88;5055259;28;20415;-74
2021/10/27 06:19:43;;;;;;;45.85;27.92;;;;;;;3.33;100.00;100559.75;5041213;28;20098;-74
2021/10/27 06:22:28;;;;;;;49.85;29.48;;;;;;;3.47;100.00;100569.44;5055177;28;20060;-74
2021/10/27 06:25:13;;;;;;;50.10;28.05;;;;;;;3.61;100.00;100568.81;5055822;28;20424;-74
2021/10/27 06:28:07;;;;;;;40.58;25.15;;;;;;;3.80;100.00;100555.25;5055639;28;20446;-74
2021/10/27 06:31:29;;;;;;;42.65;25.70;;;;;;;3.94;100.00;100563.25;5054454;28;20057;-74
2021/10/27 06:37:39;;;;;;;;;;;;;;;4.36;100.00;100572.44;5055172;28;20065;-74
2021/10/27 06:49:00;;;;;;;34.63;22.40;;;;;;;5.11;100.00;100576.72;5055465;28;20354;-75
2021/10/27 06:51:45;;;;;;;34.72;23.30;;;;;;;5.31;100.00;100582.09;5055288;28;20045;-74
2021/10/27 06:54:29;;;;;;;40.53;22.80;;;;;;;5.55;100.00;100585.72;5055387;28;20087;-74
2021/10/27 06:57:14;;;;;;;31.80;20.90;;;;;;;5.73;100.00;100591.06;5055328;28;20091;-74
2021/10/27 07:00:03;;;;;;;31.45;22.02;;;;;;;5.88;100.00;100592.03;5054649;28;20155;-72
2021/10/27 07:06:07;;;;;;;38.55;22.95;;;;;;;6.15;100.00;100584.44;5054874;28;20048;-74
2021/10/27 07:17:54;;;;;;;128.02;64.60;;;;;;;6.84;100.00;100602.06;5058908;28;20133;-75
2021/10/27 07:20:38;;;;;;;99.85;56.80;;;;;;;7.10;100.00;100596.91;5057997;28;20052;-75
2021/10/27 07:23:23;;;;;;;60.45;37.83;;;;;;;7.27;98.87;100587.38;5058631;28;20049;-75
2021/10/27 07:26:10;;;;;;;40.40;27.05;;;;;;;7.35;98.36;100593.47;5043885;28;20103;-75
2021/10/27 07:28:55;;;;;;;32.70;22.52;;;;;;;7.64;97.32;100592.59;5072311;28;20432;-75
2021/10/27 07:31:40;;;;;;;30.77;20.23;;;;;;;7.67;96.69;100596.06;5057653;28;20406;-75
2021/10/27 07:34:34;;;;;;;25.48;17.98;;;;;;;7.86;95.28;100590.81;5058292;28;20044;-75
2021/10/27 07:43:32;;;;;;;79.55;40.30;;;;;;;8.55;92.45;100596.75;5057575;28;20375;-75
2021/10/27 07:46:15;;;;;;;102.10;53.38;;;;;;;8.82;90.46;100589.66;5058511;28;20041;-75
2021/10/27 07:48:59;;;;;;;131.55;69.85;;;;;;;9.12;89.56;100592.06;5058064;28;20037;-75
2021/10/27 07:51:44;;;;;;;59.65;32.80;;;;;;;9.51;88.36;100587.41;5058191;28;20064;-75
2021/10/27 07:54:28;;;;;;;35.08;22.02;;;;;;;9.69;86.37;100586.41;5058400;28;20033;-75
2021/10/27 07:57:13;;;;;;;32.53;19.55;;;;;;;9.76;85.73;100598.53;5058027;28;20398;-75
2021/10/27 07:59:57;;;;;;;30.27;20.33;;;;;;;9.74;85.09;100586.34;5043307;28;20366;-75
2021/10/27 08:02:44;;;;;;;25.73;17.27;;;;;;;9.94;84.35;100587.00;5057309;28;20041;-75
2021/10/27 08:05:30;;;;;;;25.95;16.15;;;;;;;10.31;83.67;100593.66;5057949;28;20044;-75
2021/10/27 08:08:19;;;;;;;25.25;15.23;;;;;;;10.30;83.42;100595.38;5057748;28;20044;-75
2021/10/27 08:11:03;;;;;;;32.85;20.75;;;;;;;10.14;82.71;100583.31;5057999;28;20102;-75
2021/10/27 08:13:48;;;;;;;38.75;25.52;;;;;;;10.26;83.45;100593.69;5057977;28;20127;-75
2021/10/27 08:16:33;;;;;;;27.08;17.95;;;;;;;10.66;82.07;100583.63;5056937;28;20052;-75
2021/10/27 08:19:19;;;;;;;20.83;15.65;;;;;;;10.73;81.74;100587.88;5070578;28;20041;-75
2021/10/27 08:22:06;;;;;;;19.02;13.52;;;;;;;10.79;79.99;100584.31;5057045;28;20041;-75
2021/10/27 08:24:52;;;;;;;20.98;14.15;;;;;;;11.21;79.43;100587.19;5057584;28;20045;-75
2021/10/27 08:27:37;;;;;;;19.35;14.65;;;;;;;11.26;80.23;100589.75;5042828;28;20056;-75
2021/10/27 08:30:27;;;;;;;19.95;14.00;;;;;;;11.14;79.53;100589.03;5056701;28;20049;-75
2021/10/27 08:33:20;;;;;;;18.35;12.98;;;;;;;10.89;79.68;100592.94;5042758;28;20051;-76
2021/10/27 08:36:05;;;;;;;18.70;14.03;;;;;;;11.30;78.25;100592.28;5042927;28;20350;-75
2021/10/27 08:38:50;;;;;;;20.20;13.70;;;;;;;11.18;78.24;100597.75;5057285;28;20045;-75
2021/10/27 08:41:37;;;;;;;21.65;14.18;;;;;;;11.42;78.53;100593.88;5057494;28;20063;-75
2021/10/27 08:44:22;;;;;;;20.15;14.73;;;;;;;11.67;77.10;100589.94;5057756;28;20052;-75
2021/10/27 08:47:08;;;;;;;24.13;15.80;;;;;;;11.77;77.36;100598.53;5070571;28;20072;-75
2021/10/27 08:49:55;;;;;;;22.50;14.45;;;;;;;12.04;76.76;100591.09;5056347;28;20048;-75
2021/10/27 08:52:40;;;;;;;22.48;14.40;;;;;;;12.40;75.29;100600.00;5057054;28;20351;-75
2021/10/27 08:55:25;;;;;;;27.05;15.13;;;;;;;12.42;74.16;100602.63;5056957;28;20041;-75
2021/10/27 08:58:09;;;;;;;23.42;14.57;;;;;;;12.50;74.36;100603.31;5056689;28;20045;-76
2021/10/27 09:01:21;;;;;;;26.30;15.13;;;;;;;12.79;74.06;100589.56;5056148;28;20052;-76
2021/10/27 09:10:22;;;;;;;19.65;13.90;;;;;;;12.88;71.74;100583.25;5056983;28;19921;-75
2021/10/27 09:34:48;;;;;;;13.15;9.43;;;;;;;13.72;69.29;100600.53;5056085;28;20037;-75
2021/10/27 10:04:42;;;;;;;9.65;7.30;;;;;;;14.49;68.27;100594.06;5055907;28;20442;-76
2021/10/27 10:07:28;;;;;;;13.18;8.45;;;;;;;14.35;67.63;100590.09;5055504;28;20061;-76
2021/10/27 10:10:14;;;;;;;11.07;7.60;;;;;;;14.26;67.66;100589.41;5041301;28;20065;-75
2021/10/27 10:12:59;;;;;;;10.43;7.50;;;;;;;14.66;67.25;100590.13;5055628;28;20041;-76
2021/10/27 10:15:43;;;;;;;8.70;6.35;;;;;;;14.76;65.28;100586.28;5041612;28;20041;-76
2021/10/27 10:18:28;;;;;;;10.80;7.32;;;;;;;14.97;64.90;100592.66;5055491;28;20040;-75
2021/10/27 10:21:27;;;;;;;10.32;6.60;;;;;;;15.06;64.93;100594.19;5055733;28;20052;-76
2021/10/27 10:24:19;;;;;;;11.30;7.22;;;;;;;15.43;64.53;100594.72;5056265;28;20049;-76
2021/10/27 10:27:14;;;;;;;11.85;7.45;;;;;;;15.24;64.92;100585.69;5055278;28;20037;-76
2021/10/27 10:30:01;;;;;;;9.88;6.13;;;;;;;14.89;63.58;100592.06;5054734;28;20383;-76
2021/10/27 10:33:00;;;;;;;16.30;10.40;;;;;;;14.80;65.71;100594.97;5056121;28;20041;-76
2021/10/27 10:57:46;;;;;;;8.20;5.05;;;;;;;15.52;63.27;100583.00;5059389;28;20095;-76
2021/10/27 11:24:11;;;;;;;10.65;6.20;;;;;;;14.87;63.29;100581.53;5057766;28;20392;-76
2021/10/27 11:51:08;;;;;;;9.70;4.20;;;;;;;15.72;60.43;100548.03;5055507;28;20045;-75
2021/10/27 11:53:53;;;;;;;6.60;4.00;;;;;;;15.90;61.06;100549.19;5056080;28;20041;-75
2021/10/27 11:56:37;;;;;;;5.82;4.20;;;;;;;15.89;59.61;100529.81;5056038;28;20052;-76
2021/10/27 11:59:22;;;;;;;8.25;4.03;;;;;;;15.74;61.03;100527.72;5055327;28;20425;-77
2021/10/27 12:02:06;;;;;;;4.65;3.40;;;;;;;15.97;60.47;100534.81;5041945;28;20378;-77
2021/10/27 12:04:53;;;;;;;5.22;3.40;;;;;;;16.17;59.82;100522.66;5057231;28;20048;-77
2021/10/27 12:07:51;;;;;;;5.15;3.78;;;;;;;16.20;59.86;100527.84;5043705;28;20056;-77
2021/10/27 12:11:01;;;;;;;7.05;4.50;;;;;;;15.84;59.70;100530.91;5057075;28;20049;-77
2021/10/27 12:13:52;;;;;;;5.38;3.95;;;;;;;15.92;59.42;100527.97;5057343;28;20037;-77
2021/10/27 12:19:36;;;;;;;5.97;3.78;;;;;;;15.72;60.18;100516.34;5056877;28;20049;-77
2021/10/27 12:22:22;;;;;;;5.95;4.55;;;;;;;15.93;60.26;100517.38;5043155;28;20041;-77
2021/10/27 12:25:08;;;;;;;7.55;4.07;;;;;;;15.95;58.70;100510.22;5058042;28;20041;-77
2021/10/27 12:27:59;;;;;;;6.45;4.03;;;;;;;15.77;58.61;100505.63;5056801;28;20049;-77
2021/10/27 12:30:45;;;;;;;7.53;3.40;;;;;;;15.53;59.42;100512.56;5042326;28;20080;-77
2021/10/27 12:33:41;;;;;;;6.30;3.78;;;;;;;15.56;60.00;100502.75;5057070;28;20045;-77
2021/10/27 12:36:33;;;;;;;5.13;3.90;;;;;;;15.47;59.17;100500.47;5056676;28;20049;-77
2021/10/27 12:39:28;;;;;;;4.93;3.00;;;;;;;15.74;59.45;100497.81;5056860;28;20044;-77
2021/10/27 12:42:16;;;;;;;4.95;3.85;;;;;;;15.62;59.16;100496.41;5043145;28;20124;-75
2021/10/27 12:45:00;;;;;;;10.32;4.65;;;;;;;15.71;59.49;100497.91;5056493;28;20332;-74
2021/10/27 12:47:45;;;;;;;10.15;6.38;;;;;;;15.27;59.97;100505.53;5056890;28;20044;-75
2021/10/27 12:50:31;;;;;;;9.77;6.15;;;;;;;15.48;60.42;100501.31;5056959;28;20041;-75
2021/10/27 12:53:15;;;;;;;7.43;3.85;;;;;;;15.33;60.44;100500.91;5057056;28;20048;-75
2021/10/27 12:56:16;;;;;;;5.20;2.78;;;;;;;15.61;58.36;100508.75;5054309;28;20045;-75
2021/10/27 12:59:05;;;;;;;7.22;3.97;;;;;;;15.52;58.83;100505.56;5054943;28;20041;-75
2021/10/27 13:02:07;;;;;;;8.77;4.63;;;;;;;15.52;59.36;100506.44;5054170;28;20037;-74
2021/10/27 13:04:59;;;;;;;12.80;5.32;;;;;;;15.65;59.72;100502.44;5054332;28;20052;-74
2021/10/27 13:07:53;;;;;;;14.38;7.82;;;;;;;15.16;59.76;100505.91;5054322;28;20040;-74
2021/10/27 13:11:31;;;;;;;24.25;10.93;;;;;;;14.98;60.19;100504.72;5054448;28;20416;-74
2021/10/27 13:14:02;;;;;;;9.90;5.70;;;;;;;14.96;60.23;100510.06;5051695;28;20061;-74
2021/10/27 13:31:49;;;;;;;14.13;7.97;;;;;;;14.92;60.31;100505.78;5056189;28;20063;-74
2021/10/27 13:34:34;;;;;;;11.38;6.28;;;;;;;14.77;60.87;100505.41;5056198;28;20041;-74
2021/10/27 13:37:20;;;;;;;10.98;5.05;;;;;;;14.78;60.09;100515.88;5056222;28;20041;-74
2021/10/27 13:40:05;;;;;;;19.63;10.68;;;;;;;14.69;60.63;100514.44;5056339;28;20040;-74
2021/10/27 13:43:37;;;;;;;28.83;15.00;;;;;;;14.66;60.96;100518.94;5055342;28;20049;-74
2021/10/27 14:06:53;;;;;;;17.85;9.05;;;;;;;14.19;64.34;100537.81;5053987;28;20462;-74
2021/10/27 14:09:53;;;;;;;12.90;6.90;;;;;;;14.19;64.58;100532.56;5053990;28;20395;-74
2021/10/27 15:37:03;;;;;;;54.55;25.50;;;;;;;11.03;78.73;100508.84;5058437;28;20095;-76
2021/10/27 15:43:11;;;;;;;86.13;35.33;;;;;;;10.81;80.08;100496.06;5058785;28;20047;-76
2021/10/27 15:52:10;;;;;;;66.88;29.88;;;;;;;10.47;81.63;100498.31;5058096;28;20045;-76
2021/10/27 15:54:55;;;;;;;62.92;27.30;;;;;;;10.42;81.29;100506.22;5058140;28;20355;-76
2021/10/27 15:57:39;;;;;;;44.08;23.35;;;;;;;10.32;81.45;100502.00;5043101;28;20447;-76
2021/10/27 16:00:24;;;;;;;65.55;38.53;;;;;;;10.19;82.81;100497.75;5058619;28;20045;-76
2021/10/27 16:03:09;;;;;;;45.33;30.80;;;;;;;10.11;82.59;100494.34;5057452;28;20033;-76
2021/10/27 16:05:57;;;;;;;32.88;23.77;;;;;;;10.02;82.96;100501.44;5057681;28;20112;-76
2021/10/27 16:08:45;;;;;;;178.95;99.65;;;;;;;10.04;82.91;100499.69;5071114;28;20425;-76
2021/10/27 16:11:31;;;;;;;266.80;143.70;;;;;;;9.96;83.50;100514.59;5057655;28;20041;-76
2021/10/27 16:14:16;;;;;;;311.83;174.93;;;;;;;9.89;83.85;100510.31;5057734;28;20431;-76
2021/10/27 16:17:02;;;;;;;321.10;182.93;;;;;;;9.79;84.20;100514.78;5056975;28;20091;-76
2021/10/27 16:19:46;;;;;;;197.75;113.57;;;;;;;9.82;84.26;100511.28;5057493;28;20039;-76
2021/10/27 16:22:31;;;;;;;110.35;59.67;;;;;;;9.77;84.67;100516.56;5055568;28;20443;-76
2021/10/27 16:25:16;;;;;;;88.32;44.70;;;;;;;9.64;84.48;100512.31;5056808;28;20056;-77
2021/10/27 16:28:01;;;;;;;55.88;29.92;;;;;;;9.52;84.69;100518.56;5042799;28;20045;-77
2021/10/27 16:30:46;;;;;;;52.95;26.95;;;;;;;9.42;85.69;100526.50;5056475;28;20068;-77
2021/10/27 16:33:31;;;;;;;150.65;69.60;;;;;;;9.34;85.95;100524.81;5056634;28;20040;-77
2021/10/27 16:36:16;;;;;;;87.03;41.42;;;;;;;9.34;85.76;100535.28;5057395;28;20047;-77
2021/10/27 16:39:04;;;;;;;168.40;76.38;;;;;;;9.22;86.19;100543.22;5056179;28;20435;-77
2021/10/27 16:41:48;;;;;;;124.10;61.05;;;;;;;9.17;86.97;100541.53;5056492;28;20037;-76
2021/10/27 16:44:34;;;;;;;147.90;67.20;;;;;;;9.06;87.02;100542.44;5056309;28;20343;-76
2021/10/27 16:47:18;;;;;;;126.03;58.70;;;;;;;9.02;87.81;100545.97;5057078;28;20443;-77
2021/10/27 16:50:05;;;;;;;155.07;74.72;;;;;;;8.87;87.59;100546.97;5056373;28;20075;-77
2021/10/27 16:52:50;;;;;;;141.70;67.60;;;;;;;8.75;88.05;100556.63;5056423;28;20037;-77
2021/10/27 16:55:35;;;;;;;87.75;46.75;;;;;;;8.73;89.18;100560.97;5056768;28;20041;-77
2021/10/27 16:58:20;;;;;;;76.75;42.20;;;;;;;8.65;88.91;100555.78;5070120;28;20037;-77
2021/10/27 17:01:05;;;;;;;63.42;35.28;;;;;;;8.48;90.11;100545.41;5056890;28;20142;-77
2021/10/27 17:03:50;;;;;;;53.60;30.00;;;;;;;8.46;90.62;100561.97;5055953;28;20041;-77
2021/10/27 17:06:35;;;;;;;50.58;28.00;;;;;;;8.46;90.61;100561.97;5055969;28;20048;-77
2021/10/27 17:09:20;;;;;;;41.38;24.27;;;;;;;8.52;90.75;100568.03;5055868;28;20052;-77
2021/10/27 17:12:06;;;;;;;41.42;23.25;;;;;;;8.50;91.34;100576.75;5041858;28;20044;-77
2021/10/27 17:14:51;;;;;;;36.45;20.23;;;;;;;8.43;91.61;100575.91;5055883;28;20044;-77
2021/10/27 17:17:35;;;;;;;33.60;19.98;;;;;;;8.32;92.19;100583.75;5041623;28;20044;-77
2021/10/27 17:20:20;;;;;;;33.95;20.23;;;;;;;8.36;92.47;100584.63;5056364;28;20044;-77
2021/10/27 17:23:04;;;;;;;36.42;20.88;;;;;;;8.33;91.47;100579.41;5069790;28;20044;-77
2021/10/27 17:25:48;;;;;;;59.40;29.40;;;;;;;8.48;92.49;100568.03;5055806;28;20052;-77
2021/10/27 17:28:34;;;;;;;107.90;55.42;;;;;;;8.56;91.66;100577.59;5056169;28;20048;-77
2021/10/27 17:31:18;;;;;;;139.57;76.93;;;;;;;8.66;90.36;100581.88;5055306;28;20439;-77
2021/10/27 17:34:04;;;;;;;152.13;85.45;;;;;;;8.72;91.19;100583.59;5056311;28;20099;-77